Time;durP1;ratioP1;P1;durP2;ratioP2;P2;SDS_P1;SDS_P2;PMS_P1;PMS_P2;Temp;Humidity;BMP_temperature;BMP_pressure;BME280_temperature;BME280_humidity;BME280_pressure;Samples;Min_cycle;Max_cycle;Signal;HPM_P1;HPM_P2
2023/05/28 00:00:10;;;;;;;16.25;7.07;;;;;;;;;;5008803;28;20115;-78
2023/05/28 00:02:36;;;;;;;13.93;7.70;;;;;;;;;;5008297;28;20093;-78
2023/05/28 00:05:02;;;;;;;17.67;8.18;;;;;;;;;;5010646;28;20050;-78
2023/05/28 00:07:28;;;;;;;14.95;7.82;;;;;;;;;;5007080;28;20484;-77
2023/05/28 00:09:58;;;;;;;13.13;7.80;;;;;;;;;;5006462;28;20042;-78
2023/05/28 00:12:24;;;;;;;15.02;7.68;;;;;;;;;;5010536;28;20057;-78
2023/05/28 00:14:50;;;;;;;13.05;7.07;;;;;;;;;;5009848;28;20101;-78
2023/05/28 00:17:17;;;;;;;17.95;8.52;;;;;;;;;;5013749;28;20470;-78
2023/05/28 00:19:43;;;;;;;14.43;7.50;;;;;;;;;;4999445;28;20054;-78
2023/05/28 00:22:09;;;;;;;15.00;7.63;;;;;;;;;;5009976;28;20109;-78
2023/05/28 00:24:35;;;;;;;15.80;7.75;;;;;;;;;;5013686;28;20496;-78
2023/05/28 00:27:02;;;;;;;13.90;8.05;;;;;;;;;;5007975;28;20382;-78
2023/05/28 00:29:29;;;;;;;13.98;7.30;;;;;;;;;;5013614;28;20053;-78
2023/05/28 00:31:58;;;;;;;18.77;8.02;;;;;;;;;;5015133;28;20046;-78
2023/05/28 00:34:24;;;;;;;15.15;7.80;;;;;;;;;;5009069;28;20049;-78
2023/05/28 00:36:51;;;;;;;21.55;8.52;;;;;;;;;;5006271;28;20091;-78
2023/05/28 00:39:17;;;;;;;19.48;8.73;;;;;;;;;;4997286;28;20081;-78
2023/05/28 00:41:43;;;;;;;16.45;8.55;;;;;;;;;;4995674;28;20046;-79
2023/05/28 00:44:09;;;;;;;17.75;8.68;;;;;;;;;;5011569;28;20046;-78
2023/05/28 00:46:43;;;;;;;17.02;8.20;;;;;;;;;;5011655;28;20058;-79
2023/05/28 00:49:12;;;;;;;16.92;7.22;;;;;;;;;;5013491;28;20050;-78
2023/05/28 00:51:40;;;;;;;17.17;7.80;;;;;;;;;;5008022;28;20105;-79
2023/05/28 00:54:06;;;;;;;12.88;6.30;;;;;;;;;;5012652;28;20095;-79
2023/05/28 00:56:33;;;;;;;12.70;6.75;;;;;;;;;;5006799;28;20077;-78
2023/05/28 00:59:04;;;;;;;12.38;6.65;;;;;;;;;;5010588;28;20041;-78
2023/05/28 01:01:30;;;;;;;15.00;7.40;;;;;;;;;;5013831;28;20042;-79
2023/05/28 01:03:56;;;;;;;13.15;6.30;;;;;;;;;;5010878;28;20611;-78
2023/05/28 01:06:22;;;;;;;10.25;6.10;;;;;;;;;;5004452;28;20053;-78
2023/05/28 01:08:51;;;;;;;11.77;7.00;;;;;;;;;;5012746;28;20129;-79
2023/05/28 01:11:19;;;;;;;13.00;6.40;;;;;;;;;;5012184;28;20081;-78
2023/05/28 01:13:46;;;;;;;13.75;7.25;;;;;;;;;;5008818;28;20054;-78
2023/05/28 01:16:12;;;;;;;12.52;6.68;;;;;;;;;;4994114;28;20046;-78
2023/05/28 01:18:39;;;;;;;12.90;6.88;;;;;;;;;;5004134;28;20049;-79
2023/05/28 01:21:06;;;;;;;16.80;7.55;;;;;;;;;;5026885;28;20053;-79
2023/05/28 01:23:40;;;;;;;13.38;7.50;;;;;;;;;;5009826;28;20042;-78
2023/05/28 01:26:07;;;;;;;13.05;7.32;;;;;;;;;;4994534;28;20042;-79
2023/05/28 01:28:33;;;;;;;12.25;7.28;;;;;;;;;;5000984;28;20046;-79
2023/05/28 01:30:59;;;;;;;16.08;7.25;;;;;;;;;;4992534;28;20442;-78
2023/05/28 01:33:25;;;;;;;13.45;7.20;;;;;;;;;;5002500;28;20501;-79
2023/05/28 01:35:54;;;;;;;13.15;7.65;;;;;;;;;;5005326;28;20085;-79
2023/05/28 01:38:22;;;;;;;16.73;8.15;;;;;;;;;;5000510;28;20034;-79
2023/05/28 01:40:48;;;;;;;14.77;7.90;;;;;;;;;;5008413;28;20049;-79
2023/05/28 01:43:14;;;;;;;13.43;7.85;;;;;;;;;;5012361;28;20041;-79
2023/05/28 01:45:41;;;;;;;17.30;8.55;;;;;;;;;;5012657;28;20108;-79
2023/05/28 01:48:07;;;;;;;14.65;8.25;;;;;;;;;;5006801;28;20533;-79
2023/05/28 01:50:33;;;;;;;14.57;8.30;;;;;;;;;;5000900;28;20061;-79
2023/05/28 01:53:00;;;;;;;18.90;8.95;;;;;;;;;;5010469;28;20092;-78
2023/05/28 01:55:26;;;;;;;14.68;8.00;;;;;;;;;;5005990;28;20054;-78
2023/05/28 01:57:52;;;;;;;15.35;8.73;;;;;;;;;;5027695;28;20070;-79
2023/05/28 02:00:18;;;;;;;18.45;9.57;;;;;;;;;;5011267;28;20557;-79
2023/05/28 02:02:45;;;;;;;13.73;7.93;;;;;;;;;;5010893;28;20045;-78
2023/05/28 02:05:11;;;;;;;19.23;9.52;;;;;;;;;;4998161;28;20499;-78
2023/05/28 02:07:37;;;;;;;21.10;9.73;;;;;;;;;;5010253;28;20141;-78
2023/05/28 02:10:03;;;;;;;14.80;8.50;;;;;;;;;;5011596;28;20145;-79
2023/05/28 02:12:29;;;;;;;16.77;9.95;;;;;;;;;;4998552;28;20080;-79
2023/05/28 02:14:56;;;;;;;19.48;10.25;;;;;;;;;;5007290;28;20080;-79
2023/05/28 02:17:22;;;;;;;16.80;10.23;;;;;;;;;;5010251;28;20053;-79
2023/05/28 02:19:48;;;;;;;17.00;9.27;;;;;;;;;;5009460;28;20046;-79
2023/05/28 02:22:14;;;;;;;15.85;9.48;;;;;;;;;;5005961;28;20046;-79
2023/05/28 02:24:41;;;;;;;18.45;10.27;;;;;;;;;;5010896;28;20053;-79
2023/05/28 02:27:07;;;;;;;16.65;9.95;;;;;;;;;;5002887;28;20054;-79
2023/05/28 02:29:36;;;;;;;19.30;10.77;;;;;;;;;;5007920;28;20050;-79
2023/05/28 02:32:02;;;;;;;16.38;10.20;;;;;;;;;;5001367;28;20050;-78
2023/05/28 02:34:28;;;;;;;16.13;10.32;;;;;;;;;;5008085;28;20046;-79
2023/05/28 02:36:56;;;;;;;18.90;10.48;;;;;;;;;;5007731;28;20048;-79
2023/05/28 02:39:22;;;;;;;22.38;10.25;;;;;;;;;;4999943;28;20102;-79
2023/05/28 02:41:48;;;;;;;17.88;10.23;;;;;;;;;;5008994;28;20125;-79
2023/05/28 02:44:14;;;;;;;16.58;9.65;;;;;;;;;;5008767;28;20136;-81
2023/05/28 02:46:41;;;;;;;17.55;9.65;;;;;;;;;;5004455;28;20406;-79
2023/05/28 02:49:07;;;;;;;21.17;10.50;;;;;;;;;;4999185;28;20132;-80
2023/05/28 02:51:33;;;;;;;18.95;10.40;;;;;;;;;;5008748;28;20451;-79
2023/05/28 02:53:59;;;;;;;17.63;10.32;;;;;;;;;;5010115;28;20042;-79
2023/05/28 02:56:25;;;;;;;18.50;10.88;;;;;;;;;;5008402;28;20042;-79
2023/05/28 02:58:52;;;;;;;16.38;9.80;;;;;;;;;;5004610;28;20046;-80
2023/05/28 03:01:18;;;;;;;18.48;9.93;;;;;;;;;;5007746;28;20041;-79
2023/05/28 03:03:44;;;;;;;19.77;11.13;;;;;;;;;;5004802;28;20057;-80
2023/05/28 03:06:10;;;;;;;14.52;9.25;;;;;;;;;;5002267;28;20113;-79
2023/05/28 03:08:36;;;;;;;15.85;9.57;;;;;;;;;;5007335;28;20523;-80
2023/05/28 03:11:02;;;;;;;16.52;9.73;;;;;;;;;;5009588;28;20041;-79
2023/05/28 03:13:29;;;;;;;20.25;11.55;;;;;;;;;;5007955;28;20130;-79
2023/05/28 03:15:55;;;;;;;21.02;10.60;;;;;;;;;;5015442;28;20401;-79
2023/05/28 03:18:21;;;;;;;17.25;10.30;;;;;;;;;;5007757;28;20069;-80
2023/05/28 03:20:47;;;;;;;20.20;11.10;;;;;;;;;;5009125;28;20046;-80
2023/05/28 03:23:13;;;;;;;23.52;12.32;;;;;;;;;;5005868;28;20068;-79
2023/05/28 03:25:39;;;;;;;20.88;12.05;;;;;;;;;;5009064;28;20038;-79
2023/05/28 03:28:05;;;;;;;23.17;12.43;;;;;;;;;;5009106;28;20398;-80
2023/05/28 03:30:31;;;;;;;19.35;11.65;;;;;;;;;;5007759;28;20056;-79
2023/05/28 03:32:57;;;;;;;17.77;10.75;;;;;;;;;;5021699;28;20073;-79
2023/05/28 03:35:23;;;;;;;18.90;11.65;;;;;;;;;;5006374;28;20430;-79
2023/05/28 03:37:49;;;;;;;20.17;11.68;;;;;;;;;;5000672;28;20046;-80
2023/05/28 03:40:15;;;;;;;19.20;11.88;;;;;;;;;;5009983;28;20061;-79
2023/05/28 03:42:41;;;;;;;19.98;11.68;;;;;;;;;;4992533;28;20042;-79
2023/05/28 03:45:08;;;;;;;22.15;11.93;;;;;;;;;;5006957;28;20073;-79
2023/05/28 03:47:35;;;;;;;20.67;11.90;;;;;;;;;;5013519;28;20054;-79
2023/05/28 03:50:01;;;;;;;16.30;10.98;;;;;;;;;;5004523;28;20076;-79
2023/05/28 03:52:27;;;;;;;16.55;11.23;;;;;;;;;;5008992;28;20153;-79
2023/05/28 03:54:53;;;;;;;18.17;11.20;;;;;;;;;;5012208;28;20069;-79
2023/05/28 03:57:19;;;;;;;19.35;11.02;;;;;;;;;;5014767;28;20478;-80
2023/05/28 03:59:45;;;;;;;21.55;12.35;;;;;;;;;;5014168;28;20046;-79
2023/05/28 04:02:11;;;;;;;22.20;12.35;;;;;;;;;;5006621;28;20044;-79
2023/05/28 04:04:38;;;;;;;20.52;11.40;;;;;;;;;;5005154;28;20075;-79
2023/05/28 04:07:04;;;;;;;20.60;12.10;;;;;;;;;;5007243;28;20455;-78
2023/05/28 04:09:31;;;;;;;20.38;11.40;;;;;;;;;;5008350;28;20493;-79
2023/05/28 04:11:57;;;;;;;21.23;11.15;;;;;;;;;;5014370;28;20113;-78
2023/05/28 04:14:23;;;;;;;19.98;10.70;;;;;;;;;;5011744;28;20493;-79
2023/05/28 04:16:49;;;;;;;17.88;10.48;;;;;;;;;;5014987;28;20559;-80
2023/05/28 04:19:15;;;;;;;16.42;9.70;;;;;;;;;;5005247;28;20045;-80
2023/05/28 04:21:41;;;;;;;19.88;9.48;;;;;;;;;;5012088;28;20049;-80
2023/05/28 04:24:07;;;;;;;19.38;10.07;;;;;;;;;;5010000;28;20050;-79
2023/05/28 04:26:33;;;;;;;18.63;9.85;;;;;;;;;;5011166;28;20084;-80
2023/05/28 04:29:00;;;;;;;17.83;10.05;;;;;;;;;;5028586;28;20120;-79
2023/05/28 04:31:29;;;;;;;22.90;10.68;;;;;;;;;;5008054;28;20045;-79
2023/05/28 04:33:55;;;;;;;19.23;9.80;;;;;;;;;;5007111;28;20054;-79
2023/05/28 04:36:21;;;;;;;16.73;9.55;;;;;;;;;;5005133;28;20099;-80
2023/05/28 04:38:47;;;;;;;17.52;9.30;;;;;;;;;;5008186;28;20112;-79
2023/05/28 04:41:14;;;;;;;16.23;8.93;;;;;;;;;;5009005;28;20108;-79
2023/05/28 04:43:41;;;;;;;16.38;10.07;;;;;;;;;;5012409;28;20173;-80
2023/05/28 04:46:08;;;;;;;16.98;9.48;;;;;;;;;;5014506;28;20061;-79
2023/05/28 04:48:37;;;;;;;16.48;10.00;;;;;;;;;;5007481;28;20540;-80
2023/05/28 04:51:05;;;;;;;22.73;10.00;;;;;;;;;;5014035;28;20046;-80
2023/05/28 04:53:31;;;;;;;21.90;9.75;;;;;;;;;;4998262;28;20453;-79
2023/05/28 04:55:57;;;;;;;18.30;9.40;;;;;;;;;;5010666;28;20033;-80
2023/05/28 04:58:23;;;;;;;22.05;10.00;;;;;;;;;;5007503;28;20046;-80
2023/05/28 05:00:51;;;;;;;17.65;8.82;;;;;;;;;;5011946;28;20046;-80
2023/05/28 05:03:17;;;;;;;14.88;8.38;;;;;;;;;;5008630;28;20046;-79
2023/05/28 05:05:43;;;;;;;15.38;8.93;;;;;;;;;;5009990;28;20038;-79
2023/05/28 05:08:12;;;;;;;18.30;9.38;;;;;;;;;;5009644;28;20119;-79
2023/05/28 05:10:39;;;;;;;21.40;9.45;;;;;;;;;;5012660;28;20053;-79
2023/05/28 05:13:05;;;;;;;17.55;9.07;;;;;;;;;;5013192;28;20046;-80
2023/05/28 05:15:31;;;;;;;17.40;9.15;;;;;;;;;;5009204;28;20409;-79
2023/05/28 05:17:56;;;;;;;14.82;8.77;;;;;;;;;;5010166;28;20038;-79
2023/05/28 05:20:23;;;;;;;16.90;9.23;;;;;;;;;;5013775;28;20143;-80
2023/05/28 05:22:49;;;;;;;15.23;8.93;;;;;;;;;;5012446;28;20383;-80
2023/05/28 05:25:15;;;;;;;19.73;8.85;;;;;;;;;;5010025;28;20108;-79
2023/05/28 05:27:41;;;;;;;16.13;8.18;;;;;;;;;;5011947;28;20061;-80
2023/05/28 05:30:08;;;;;;;16.17;8.82;;;;;;;;;;5011714;28;20045;-79
2023/05/28 05:32:34;;;;;;;16.30;7.85;;;;;;;;;;4996846;28;20487;-80
2023/05/28 05:35:00;;;;;;;19.75;7.63;;;;;;;;;;5006279;28;20405;-79
2023/05/28 05:37:26;;;;;;;13.23;6.95;;;;;;;;;;5010771;28;20042;-79
2023/05/28 05:39:52;;;;;;;14.93;7.07;;;;;;;;;;5009078;28;20061;-80
2023/05/28 05:42:18;;;;;;;15.13;6.75;;;;;;;;;;5011127;28;20129;-80
2023/05/28 05:44:45;;;;;;;18.95;6.15;;;;;;;;;;5010113;28;20050;-80
2023/05/28 05:47:11;;;;;;;18.65;6.80;;;;;;;;;;5005054;28;20049;-80
2023/05/28 05:49:37;;;;;;;13.77;5.70;;;;;;;;;;5011379;28;20462;-79
2023/05/28 05:52:03;;;;;;;11.15;5.30;;;;;;;;;;5009335;28;20568;-80
2023/05/28 05:54:29;;;;;;;16.77;6.47;;;;;;;;;;5009570;28;20045;-79
2023/05/28 05:56:55;;;;;;;12.45;6.55;;;;;;;;;;4997078;28;20049;-80
2023/05/28 05:59:21;;;;;;;11.75;6.13;;;;;;;;;;4992946;28;20514;-79
2023/05/28 06:01:47;;;;;;;12.45;5.80;;;;;;;;;;5001798;28;20035;-80
2023/05/28 06:04:13;;;;;;;13.75;5.47;;;;;;;;;;5010706;28;20045;-80
2023/05/28 06:06:39;;;;;;;11.32;5.53;;;;;;;;;;5009599;28;20053;-79
2023/05/28 06:09:06;;;;;;;13.82;5.95;;;;;;;;;;5010766;28;20103;-79
2023/05/28 06:11:32;;;;;;;14.07;6.78;;;;;;;;;;5010858;28;20045;-79
2023/05/28 06:13:58;;;;;;;13.20;5.75;;;;;;;;;;4993932;28;20062;-79
2023/05/28 06:16:25;;;;;;;16.73;5.75;;;;;;;;;;5008406;28;20042;-80
2023/05/28 06:18:51;;;;;;;13.70;6.18;;;;;;;;;;5011745;28;20049;-80
2023/05/28 06:21:18;;;;;;;11.05;5.72;;;;;;;;;;4999026;28;20048;-80
2023/05/28 06:23:44;;;;;;;15.05;6.35;;;;;;;;;;5001814;28;20104;-80
2023/05/28 06:26:10;;;;;;;13.25;5.82;;;;;;;;;;5010377;28;20034;-79
2023/05/28 06:28:36;;;;;;;14.10;6.05;;;;;;;;;;5010597;28;20113;-80
2023/05/28 06:31:02;;;;;;;12.75;5.85;;;;;;;;;;5010781;28;20045;-80
2023/05/28 06:33:29;;;;;;;12.05;6.22;;;;;;;;;;4996937;28;20046;-80
2023/05/28 06:35:55;;;;;;;12.13;6.07;;;;;;;;;;5010232;28;20046;-80
2023/05/28 06:38:21;;;;;;;10.52;5.47;;;;;;;;;;5008866;28;20398;-79
2023/05/28 06:40:47;;;;;;;11.00;5.30;;;;;;;;;;5006493;28;20052;-80
2023/05/28 06:43:13;;;;;;;10.13;5.18;;;;;;;;;;5007769;28;20042;-80
2023/05/28 06:45:39;;;;;;;6.35;4.20;;;;;;;;;;5010542;28;20065;-80
2023/05/28 06:48:05;;;;;;;12.02;4.70;;;;;;;;;;5008150;28;20073;-80
2023/05/28 06:50:31;;;;;;;7.45;4.47;;;;;;;;;;5006466;28;20104;-79
2023/05/28 06:52:57;;;;;;;8.50;4.00;;;;;;;;;;5007231;28;20038;-79
2023/05/28 06:55:23;;;;;;;11.18;4.72;;;;;;;;;;5009666;28;20057;-79
2023/05/28 06:57:50;;;;;;;7.13;4.10;;;;;;;;;;5006384;28;20045;-79
2023/05/28 07:00:16;;;;;;;7.82;4.20;;;;;;;;;;5006867;28;20490;-79
2023/05/28 07:02:45;;;;;;;9.85;4.18;;;;;;;;;;5007648;28;20048;-80
2023/05/28 07:05:12;;;;;;;7.18;4.30;;;;;;;;;;5005881;28;20042;-79
2023/05/28 07:07:38;;;;;;;8.48;4.40;;;;;;;;;;5007466;28;20386;-79
2023/05/28 07:10:05;;;;;;;11.93;4.38;;;;;;;;;;5024451;28;20053;-79
2023/05/28 07:12:31;;;;;;;8.88;4.43;;;;;;;;;;5007644;28;20088;-79
2023/05/28 07:14:57;;;;;;;10.90;4.55;;;;;;;;;;5002716;28;20129;-79
2023/05/28 07:17:23;;;;;;;8.63;4.35;;;;;;;;;;5009155;28;20436;-80
2023/05/28 07:19:49;;;;;;;7.03;4.30;;;;;;;;;;5004187;28;20091;-79
2023/05/28 07:22:15;;;;;;;8.38;4.00;;;;;;;;;;5009011;28;20187;-79
2023/05/28 07:24:41;;;;;;;7.38;3.75;;;;;;;;;;5008023;28;20038;-79
2023/05/28 07:27:07;;;;;;;11.80;4.95;;;;;;;;;;5008587;28;20057;-80
2023/05/28 07:29:33;;;;;;;5.35;4.00;;;;;;;;;;5002511;28;20046;-79
2023/05/28 07:31:59;;;;;;;7.32;3.97;;;;;;;;;;5007909;28;20041;-79
2023/05/28 07:34:25;;;;;;;9.75;4.15;;;;;;;;;;5008901;28;20041;-79
2023/05/28 07:36:51;;;;;;;8.52;3.85;;;;;;;;;;5006013;28;20050;-79
2023/05/28 07:39:17;;;;;;;10.18;4.70;;;;;;;;;;4994709;28;20460;-79
2023/05/28 07:41:44;;;;;;;8.88;4.03;;;;;;;;;;5010553;28;20080;-79
2023/05/28 07:44:10;;;;;;;6.97;4.22;;;;;;;;;;4994784;28;20081;-79
2023/05/28 07:46:37;;;;;;;13.73;4.03;;;;;;;;;;5008693;28;20938;-80
2023/05/28 07:49:03;;;;;;;10.95;4.72;;;;;;;;;;5008153;28;20054;-79
2023/05/28 07:51:29;;;;;;;9.77;4.40;;;;;;;;;;4997645;28;20046;-78
2023/05/28 07:53:55;;;;;;;7.63;4.40;;;;;;;;;;5005410;28;20048;-79
2023/05/28 07:56:21;;;;;;;8.65;4.40;;;;;;;;;;5007668;28;20065;-79
2023/05/28 07:58:47;;;;;;;10.18;5.00;;;;;;;;;;4991384;28;20046;-80
2023/05/28 08:01:13;;;;;;;10.02;4.70;;;;;;;;;;5005556;28;20389;-78
2023/05/28 08:03:39;;;;;;;9.70;5.13;;;;;;;;;;5008500;28;20505;-78
2023/05/28 08:06:06;;;;;;;8.45;5.28;;;;;;;;;;5004376;28;20070;-78
2023/05/28 08:08:32;;;;;;;10.52;4.88;;;;;;;;;;5006650;28;20399;-79
2023/05/28 08:10:58;;;;;;;8.18;5.00;;;;;;;;;;5016736;28;21347;-81
2023/05/28 08:13:25;;;;;;;7.63;5.30;;;;;;;;;;5031479;28;20144;-77
2023/05/28 08:15:51;;;;;;;8.40;4.70;;;;;;;;;;5006544;28;20042;-77
2023/05/28 08:18:17;;;;;;;9.73;4.80;;;;;;;;;;5010085;28;20108;-79
2023/05/28 08:20:43;;;;;;;8.68;5.00;;;;;;;;;;5000394;28;20137;-78
2023/05/28 08:23:09;;;;;;;8.30;5.22;;;;;;;;;;4993733;28;20432;-77
2023/05/28 08:25:35;;;;;;;8.15;4.85;;;;;;;;;;4996658;28;20043;-80
2023/05/28 08:28:01;;;;;;;8.55;5.05;;;;;;;;;;5016304;28;20038;-80
2023/05/28 08:30:27;;;;;;;11.27;5.32;;;;;;;;;;5009763;28;20085;-77
2023/05/28 08:32:53;;;;;;;10.63;5.78;;;;;;;;;;5011267;28;20061;-76
2023/05/28 08:35:19;;;;;;;9.90;5.22;;;;;;;;;;5021804;28;20041;-76
2023/05/28 08:37:46;;;;;;;9.55;5.15;;;;;;;;;;5020032;28;20065;-79
2023/05/28 08:40:13;;;;;;;11.50;5.40;;;;;;;;;;5017315;28;20512;-80
2023/05/28 08:42:39;;;;;;;10.38;5.53;;;;;;;;;;5003891;28;20121;-75
2023/05/28 08:45:06;;;;;;;10.95;5.22;;;;;;;;;;5005103;28;20058;-73
2023/05/28 08:47:33;;;;;;;12.93;6.10;;;;;;;;;;5014739;28;20121;-74
2023/05/28 08:50:02;;;;;;;9.65;5.32;;;;;;;;;;5010875;28;20041;-74
2023/05/28 08:52:29;;;;;;;8.25;5.40;;;;;;;;;;5023736;28;20500;-78
2023/05/28 08:54:55;;;;;;;11.23;5.50;;;;;;;;;;5004555;28;20111;-76
2023/05/28 08:57:21;;;;;;;7.95;4.97;;;;;;;;;;5007236;28;20110;-79
2023/05/28 08:59:47;;;;;;;10.43;5.70;;;;;;;;;;5013821;28;20219;-80
2023/05/28 09:02:15;;;;;;;9.02;5.97;;;;;;;;;;5004230;28;20478;-80
2023/05/28 09:04:45;;;;;;;9.55;5.78;;;;;;;;;;5009137;28;20045;-78
2023/05/28 09:07:12;;;;;;;10.82;6.30;;;;;;;;;;5025321;28;20482;-79
2023/05/28 09:09:38;;;;;;;10.50;5.88;;;;;;;;;;5004952;28;20095;-78
2023/05/28 09:12:07;;;;;;;10.20;6.07;;;;;;;;;;5000701;28;20034;-78
2023/05/28 09:14:39;;;;;;;9.93;6.25;;;;;;;;;;5019927;28;21108;-77
2023/05/28 09:17:05;;;;;;;12.38;6.47;;;;;;;;;;5010831;28;20050;-78
2023/05/28 09:19:31;;;;;;;12.00;6.53;;;;;;;;;;5014887;28;20413;-77
2023/05/28 09:21:59;;;;;;;11.50;6.18;;;;;;;;;;5007141;28;20038;-77
2023/05/28 09:24:28;;;;;;;9.35;6.32;;;;;;;;;;5008107;28;20061;-77
2023/05/28 09:26:57;;;;;;;10.15;6.40;;;;;;;;;;5005669;28;20634;-78
2023/05/28 09:29:27;;;;;;;8.27;5.53;;;;;;;;;;5011368;28;20046;-78
2023/05/28 09:31:57;;;;;;;10.45;5.88;;;;;;;;;;4994497;28;20078;-78
2023/05/28 09:34:29;;;;;;;9.25;5.90;;;;;;;;;;4996240;28;20060;-77
2023/05/28 09:37:03;;;;;;;11.25;5.95;;;;;;;;;;5010833;28;20089;-78
2023/05/28 09:39:29;;;;;;;11.05;5.55;;;;;;;;;;5006447;28;20060;-77
2023/05/28 09:42:03;;;;;;;8.57;5.45;;;;;;;;;;5008812;28;20426;-77
2023/05/28 09:44:31;;;;;;;9.35;5.03;;;;;;;;;;5011880;28;20054;-77
2023/05/28 09:46:57;;;;;;;9.20;4.97;;;;;;;;;;5012680;28;20054;-78
2023/05/28 09:49:23;;;;;;;8.02;4.50;;;;;;;;;;5007399;28;20049;-77
2023/05/28 09:51:52;;;;;;;7.82;4.75;;;;;;;;;;5012632;28;20125;-77
2023/05/28 09:54:18;;;;;;;9.05;4.80;;;;;;;;;;5011477;28;20144;-78
2023/05/28 09:56:52;;;;;;;10.23;4.63;;;;;;;;;;5009930;28;20132;-78
2023/05/28 09:59:19;;;;;;;8.15;4.93;;;;;;;;;;4996690;28;20054;-78
2023/05/28 10:01:48;;;;;;;7.03;4.07;;;;;;;;;;5009601;28;20088;-77
2023/05/28 10:04:17;;;;;;;8.90;4.70;;;;;;;;;;4999600;28;20125;-77
2023/05/28 10:06:44;;;;;;;8.07;4.40;;;;;;;;;;5007248;28;20045;-77
2023/05/28 10:09:12;;;;;;;5.85;3.60;;;;;;;;;;5001356;28;20046;-77
2023/05/28 10:11:48;;;;;;;8.10;4.55;;;;;;;;;;5010052;28;20129;-78
2023/05/28 10:14:15;;;;;;;7.78;4.40;;;;;;;;;;5012571;28;20053;-78
2023/05/28 10:16:41;;;;;;;7.90;4.35;;;;;;;;;;5002958;28;20080;-78
2023/05/28 10:19:07;;;;;;;7.63;3.85;;;;;;;;;;5009220;28;20088;-78
2023/05/28 10:21:33;;;;;;;8.40;4.10;;;;;;;;;;4998401;28;20042;-78
2023/05/28 10:23:59;;;;;;;6.60;4.25;;;;;;;;;;5003633;28;20053;-77
2023/05/28 10:26:26;;;;;;;6.97;4.00;;;;;;;;;;5007877;28;20050;-78
2023/05/28 10:28:55;;;;;;;8.98;3.90;;;;;;;;;;5006341;28;20041;-77
2023/05/28 10:31:22;;;;;;;6.05;4.20;;;;;;;;;;5003915;28;20462;-78
2023/05/28 10:33:48;;;;;;;9.25;4.25;;;;;;;;;;5002116;28;20046;-78
2023/05/28 10:36:14;;;;;;;7.47;4.25;;;;;;;;;;5003413;28;20076;-78
2023/05/28 10:38:45;;;;;;;9.18;4.80;;;;;;;;;;5000286;28;20088;-81
2023/05/28 10:41:11;;;;;;;8.88;4.93;;;;;;;;;;5011598;28;20046;-78
2023/05/28 10:43:41;;;;;;;9.60;4.78;;;;;;;;;;5007118;28;20454;-80
2023/05/28 10:46:17;;;;;;;8.20;4.85;;;;;;;;;;4998812;28;20053;-77
2023/05/28 10:49:20;;;;;;;7.53;4.25;;;;;;;;;;5012537;28;20141;-79
2023/05/28 10:51:56;;;;;;;8.30;5.00;;;;;;;;;;4949091;28;20047;-80
2023/05/28 10:54:44;;;;;;;8.98;4.93;;;;;;;;;;4997218;28;20069;-78
2023/05/28 10:57:13;;;;;;;9.77;4.85;;;;;;;;;;4997769;28;20049;-78
2023/05/28 10:59:39;;;;;;;7.55;4.68;;;;;;;;;;5016950;28;20077;-78
2023/05/28 11:02:07;;;;;;;9.95;4.65;;;;;;;;;;5004319;28;20049;-78
2023/05/28 11:04:34;;;;;;;8.38;4.20;;;;;;;;;;5001839;28;20470;-78
2023/05/28 11:07:00;;;;;;;8.82;4.70;;;;;;;;;;5003772;28;20045;-77
2023/05/28 11:09:26;;;;;;;7.57;4.20;;;;;;;;;;5011812;28;20046;-78
2023/05/28 11:11:53;;;;;;;8.55;4.18;;;;;;;;;;5021689;28;20137;-79
2023/05/28 11:14:19;;;;;;;9.25;4.03;;;;;;;;;;5008033;28;20397;-78
2023/05/28 11:16:45;;;;;;;6.95;3.70;;;;;;;;;;5009483;28;20052;-78
2023/05/28 11:19:12;;;;;;;7.15;4.05;;;;;;;;;;5012210;28;20046;-78
2023/05/28 11:21:55;;;;;;;6.97;3.55;;;;;;;;;;5001652;28;20116;-79
2023/05/28 11:24:21;;;;;;;8.90;4.03;;;;;;;;;;5007679;28;20057;-79
2023/05/28 11:26:47;;;;;;;8.00;3.58;;;;;;;;;;5005827;28;20072;-78
2023/05/28 11:29:14;;;;;;;7.82;3.40;;;;;;;;;;5005789;28;20042;-77
2023/05/28 11:31:40;;;;;;;7.30;3.85;;;;;;;;;;5003365;28;20042;-78
2023/05/28 11:34:07;;;;;;;6.75;3.38;;;;;;;;;;4999893;28;20056;-79
2023/05/28 11:36:43;;;;;;;9.20;3.80;;;;;;;;;;5008362;28;20505;-78
2023/05/28 11:39:09;;;;;;;7.95;3.92;;;;;;;;;;5004855;28;20436;-79
2023/05/28 11:41:35;;;;;;;6.10;3.85;;;;;;;;;;5005111;28;20038;-78
2023/05/28 11:44:01;;;;;;;7.00;3.78;;;;;;;;;;5007071;28;20057;-78
2023/05/28 11:46:27;;;;;;;8.30;3.88;;;;;;;;;;5008115;28;20053;-78
2023/05/28 11:48:53;;;;;;;8.13;3.58;;;;;;;;;;5007002;28;20730;-78
2023/05/28 11:51:20;;;;;;;8.80;4.47;;;;;;;;;;4994296;28;20112;-79
2023/05/28 11:53:46;;;;;;;9.27;4.40;;;;;;;;;;5003213;28;20403;-78
2023/05/28 11:56:13;;;;;;;10.00;4.50;;;;;;;;;;4995111;28;20391;-78
2023/05/28 11:58:44;;;;;;;13.60;4.85;;;;;;;;;;5004357;28;20084;-77
2023/05/28 12:01:14;;;;;;;10.57;5.05;;;;;;;;;;5006625;28;20042;-78
2023/05/28 12:03:40;;;;;;;11.00;4.97;;;;;;;;;;5008500;28;20049;-78
2023/05/28 12:06:06;;;;;;;8.70;4.70;;;;;;;;;;5007770;28;20046;-78
2023/05/28 12:08:32;;;;;;;9.25;4.55;;;;;;;;;;5013322;28;20098;-78
2023/05/28 12:11:02;;;;;;;11.15;4.60;;;;;;;;;;5007411;28;20061;-78
2023/05/28 12:13:35;;;;;;;12.48;4.70;;;;;;;;;;5010132;28;20054;-78
2023/05/28 12:16:09;;;;;;;11.63;5.18;;;;;;;;;;5007030;28;20057;-77
2023/05/28 12:18:35;;;;;;;10.18;4.80;;;;;;;;;;4994118;28;20401;-77
2023/05/28 12:21:01;;;;;;;9.85;4.60;;;;;;;;;;5005415;28;20129;-78
2023/05/28 12:23:28;;;;;;;10.98;5.22;;;;;;;;;;5005830;28;20078;-79
2023/05/28 12:25:54;;;;;;;9.88;4.68;;;;;;;;;;4999543;28;20046;-79
2023/05/28 12:28:21;;;;;;;7.82;4.70;;;;;;;;;;5000292;28;20490;-79
2023/05/28 12:30:50;;;;;;;10.88;4.85;;;;;;;;;;5000488;28;20041;-79
2023/05/28 12:33:16;;;;;;;11.23;4.25;;;;;;;;;;5010849;28;20042;-79
2023/05/28 12:35:42;;;;;;;8.98;4.30;;;;;;;;;;5009626;28;20061;-79
2023/05/28 12:38:09;;;;;;;7.53;4.18;;;;;;;;;;5011285;28;20335;-84
2023/05/28 12:40:35;;;;;;;12.48;4.28;;;;;;;;;;5010146;28;20056;-85
2023/05/28 12:43:01;;;;;;;6.00;4.28;;;;;;;;;;5011195;28;20046;-84
2023/05/28 12:45:27;;;;;;;8.65;4.35;;;;;;;;;;5007965;28;20057;-83
2023/05/28 12:47:53;;;;;;;7.88;4.38;;;;;;;;;;5026540;28;20125;-82
2023/05/28 12:50:22;;;;;;;8.55;4.28;;;;;;;;;;5001986;28;20054;-83
2023/05/28 12:52:48;;;;;;;8.35;4.03;;;;;;;;;;5013891;28;20050;-83
2023/05/28 12:55:14;;;;;;;7.03;3.97;;;;;;;;;;5010841;28;20050;-82
2023/05/28 12:57:40;;;;;;;7.88;4.00;;;;;;;;;;5002766;28;20104;-82
2023/05/28 13:00:10;;;;;;;9.48;4.10;;;;;;;;;;5004743;28;20038;-82
2023/05/28 13:02:36;;;;;;;8.57;4.57;;;;;;;;;;5010396;28;20176;-82
2023/05/28 13:05:02;;;;;;;11.32;4.60;;;;;;;;;;5012186;28;20046;-82
2023/05/28 13:07:28;;;;;;;8.73;4.50;;;;;;;;;;5026915;28;20053;-83
2023/05/28 13:09:54;;;;;;;7.97;4.40;;;;;;;;;;5004023;28;20041;-77
2023/05/28 13:12:20;;;;;;;8.55;4.93;;;;;;;;;;5013621;28;20117;-79
2023/05/28 13:14:46;;;;;;;6.03;4.10;;;;;;;;;;5010014;28;20125;-79
2023/05/28 13:17:12;;;;;;;9.00;4.72;;;;;;;;;;5009201;28;20070;-79
2023/05/28 13:19:39;;;;;;;8.90;4.30;;;;;;;;;;5020333;28;20054;-79
2023/05/28 13:22:05;;;;;;;6.75;4.00;;;;;;;;;;5012401;28;20053;-80
2023/05/28 13:24:31;;;;;;;12.50;5.00;;;;;;;;;;4994844;28;20057;-78
2023/05/28 13:26:57;;;;;;;7.80;4.20;;;;;;;;;;5011192;28;20045;-79
2023/05/28 13:29:23;;;;;;;8.93;4.53;;;;;;;;;;5011811;28;20042;-79
2023/05/28 13:31:49;;;;;;;8.93;4.20;;;;;;;;;;4998279;28;20442;-79
2023/05/28 13:34:15;;;;;;;7.93;4.38;;;;;;;;;;4993681;28;20046;-80
2023/05/28 13:36:41;;;;;;;11.55;4.63;;;;;;;;;;5004265;28;20042;-79
2023/05/28 13:39:07;;;;;;;10.38;4.30;;;;;;;;;;5005229;28;20429;-79
2023/05/28 13:41:34;;;;;;;9.68;4.28;;;;;;;;;;5007297;28;20064;-79
2023/05/28 13:44:01;;;;;;;10.80;5.05;;;;;;;;;;4997998;28;20096;-79
2023/05/28 13:46:27;;;;;;;8.88;4.53;;;;;;;;;;5009015;28;20054;-80
2023/05/28 13:48:53;;;;;;;10.82;4.55;;;;;;;;;;5005923;28;20421;-80
2023/05/28 13:51:19;;;;;;;7.22;4.05;;;;;;;;;;5006180;28;20037;-80
2023/05/28 13:53:46;;;;;;;8.15;4.40;;;;;;;;;;5011801;28;20048;-80
2023/05/28 13:56:15;;;;;;;9.15;4.13;;;;;;;;;;5010271;28;20077;-80
2023/05/28 13:58:41;;;;;;;10.80;4.43;;;;;;;;;;5008452;28;20064;-79
2023/05/28 14:01:07;;;;;;;6.82;3.75;;;;;;;;;;5004969;28;20046;-80
2023/05/28 14:03:33;;;;;;;7.53;4.13;;;;;;;;;;5005282;28;20109;-80
2023/05/28 14:05:59;;;;;;;7.30;4.22;;;;;;;;;;5000289;28;20415;-80
2023/05/28 14:08:25;;;;;;;10.50;6.40;;;;;;;;;;4993378;28;20050;-77
2023/05/28 14:10:52;;;;;;;10.70;4.63;;;;;;;;;;5007259;28;20049;-77
2023/05/28 14:13:18;;;;;;;9.27;4.13;;;;;;;;;;4999285;28;20030;-78
2023/05/28 14:15:44;;;;;;;9.95;4.60;;;;;;;;;;5009161;28;20045;-79
2023/05/28 14:18:11;;;;;;;9.27;4.32;;;;;;;;;;5005170;28;20045;-79
2023/05/28 14:20:37;;;;;;;7.75;4.05;;;;;;;;;;5008228;28;20068;-81
2023/05/28 14:23:03;;;;;;;6.90;4.00;;;;;;;;;;5006419;28;20095;-78
2023/05/28 14:25:29;;;;;;;8.40;4.00;;;;;;;;;;5005231;28;20041;-77
2023/05/28 14:27:56;;;;;;;6.68;3.47;;;;;;;;;;5010793;28;20042;-78
2023/05/28 14:30:22;;;;;;;6.40;3.70;;;;;;;;;;5003150;28;20045;-78